Time;durP1;ratioP1;P1;durP2;ratioP2;P2;SDS_P1;SDS_P2;PMS_P1;PMS_P2;Temp;Humidity;BMP_temperature;BMP_pressure;BME280_temperature;BME280_humidity;BME280_pressure;Samples;Min_cycle;Max_cycle;Signal;HPM_P1;HPM_P2
2024/01/18 00:02:22;;;;;;;15.45;10.43;;;3.30;99.50;;;;;;5063716;28;20293;-38
2024/01/18 00:04:53;;;;;;;13.70;9.85;;;3.30;99.50;;;;;;5062826;28;20176;-36
2024/01/18 00:07:19;;;;;;;13.13;10.02;;;3.30;99.50;;;;;;5062860;28;20175;-35
2024/01/18 00:09:45;;;;;;;12.50;8.97;;;3.30;99.40;;;;;;5058653;28;20206;-34
2024/01/18 00:12:13;;;;;;;15.20;10.18;;;3.30;99.50;;;;;;5062802;28;20430;-37
2024/01/18 00:14:39;;;;;;;14.55;9.95;;;3.30;99.50;;;;;;5080609;28;20179;-37
2024/01/18 00:17:13;;;;;;;12.90;9.55;;;3.30;99.50;;;;;;5070104;28;20234;-35
2024/01/18 00:19:39;;;;;;;12.77;9.73;;;3.30;99.50;;;;;;5089343;28;20808;-37
2024/01/18 00:22:07;;;;;;;11.48;9.73;;;3.30;99.50;;;;;;5061678;28;20211;-35
2024/01/18 00:24:33;;;;;;;13.77;9.90;;;3.30;99.50;;;;;;5062006;28;20273;-38
2024/01/18 00:27:06;;;;;;;11.63;9.30;;;3.30;99.50;;;;;;5080544;28;20786;-35
2024/01/18 00:29:35;;;;;;;14.73;9.85;;;3.30;99.40;;;;;;5080438;28;20796;-35
2024/01/18 00:32:01;;;;;;;14.27;10.35;;;3.30;99.40;;;;;;5080762;28;20246;-35
2024/01/18 00:34:29;;;;;;;11.00;8.40;;;3.30;99.40;;;;;;5080651;28;20263;-33
2024/01/18 00:36:56;;;;;;;14.68;9.65;;;3.30;99.50;;;;;;5079946;28;20421;-37
2024/01/18 00:39:24;;;;;;;15.15;9.45;;;3.30;99.50;;;;;;5051421;28;20278;-39
2024/01/18 00:41:52;;;;;;;10.95;9.07;;;3.30;99.50;;;;;;5067418;28;20202;-34
2024/01/18 00:44:18;;;;;;;13.27;10.70;;;3.30;99.50;;;;;;5064995;28;20192;-39
2024/01/18 00:46:44;;;;;;;12.85;9.93;;;3.30;99.50;;;;;;5066454;28;21091;-36
2024/01/18 00:49:10;;;;;;;11.77;9.18;;;3.30;99.90;;;;;;5096821;28;20280;-37
2024/01/18 00:51:38;;;;;;;14.90;10.70;;;3.30;99.50;;;;;;5075886;28;20694;-36
2024/01/18 00:54:06;;;;;;;14.70;10.20;;;3.30;99.50;;;;;;5079624;28;20544;-40
2024/01/18 00:56:32;;;;;;;12.47;9.00;;;3.30;99.50;;;;;;5061074;28;20961;-40
2024/01/18 00:59:02;;;;;;;12.77;9.60;;;3.30;99.50;;;;;;5079767;28;20540;-37
2024/01/18 01:01:28;;;;;;;14.40;9.93;;;3.30;99.40;;;;;;5079339;28;20215;-39
2024/01/18 01:03:58;;;;;;;15.05;10.25;;;3.30;99.50;;;;;;5061846;28;20582;-36
2024/01/18 01:06:24;;;;;;;14.07;10.38;;;3.30;99.50;;;;;;5079392;28;20210;-34
2024/01/18 01:08:54;;;;;;;14.10;10.40;;;3.30;99.50;;;;;;5079848;28;20206;-38
2024/01/18 01:11:20;;;;;;;13.05;8.98;;;3.30;99.50;;;;;;5099320;28;20700;-38
2024/01/18 01:13:46;;;;;;;17.87;10.63;;;3.30;99.50;;;;;;5100333;28;20214;-37
2024/01/18 01:16:12;;;;;;;14.32;9.38;;;3.30;99.50;;;;;;5072950;28;20466;-34
2024/01/18 01:18:38;;;;;;;13.73;9.73;;;3.30;99.40;;;;;;5080440;28;20183;-36
2024/01/18 01:21:06;;;;;;;10.90;9.30;;;3.30;99.40;;;;;;5079746;28;20242;-40
2024/01/18 01:23:38;;;;;;;14.55;11.80;;;3.30;99.40;;;;;;5061248;28;20642;-35
2024/01/18 01:26:04;;;;;;;13.43;9.43;;;3.30;99.40;;;;;;5079211;28;20172;-35
2024/01/18 01:28:30;;;;;;;14.40;9.90;;;3.30;99.80;;;;;;5044607;28;20880;-32
2024/01/18 01:30:58;;;;;;;14.25;9.85;;;3.30;99.50;;;;;;5079190;28;20452;-39
2024/01/18 01:33:24;;;;;;;12.38;9.93;;;3.30;99.50;;;;;;5078779;28;20945;-38
2024/01/18 01:35:56;;;;;;;11.85;9.23;;;3.30;99.50;;;;;;5099867;28;20567;-36
2024/01/18 01:38:22;;;;;;;13.88;10.23;;;3.30;99.40;;;;;;5117707;27;20201;-37
2024/01/18 01:40:53;;;;;;;11.85;9.75;;;3.30;99.40;;;;;;5069147;28;20194;-40
2024/01/18 01:43:24;;;;;;;15.93;11.02;;;3.30;99.40;;;;;;5095846;28;20179;-34
2024/01/18 01:45:52;;;;;;;12.95;10.10;;;3.30;99.80;;;;;;5080974;28;20245;-38
2024/01/18 01:48:19;;;;;;;16.00;10.17;;;3.30;99.50;;;;;;5094442;28;20669;-36
2024/01/18 01:50:47;;;;;;;14.00;10.02;;;3.30;99.50;;;;;;5067017;28;20498;-38
2024/01/18 01:53:18;;;;;;;13.65;10.50;;;3.30;99.50;;;;;;5102255;28;20198;-39
2024/01/18 01:55:46;;;;;;;13.75;9.93;;;3.30;99.50;;;;;;5087503;28;20178;-36
2024/01/18 01:58:17;;;;;;;15.57;9.73;;;3.30;99.50;;;;;;5036867;28;20288;-34
2024/01/18 02:00:44;;;;;;;12.80;9.32;;;3.30;99.50;;;;;;5085334;28;20858;-34
2024/01/18 02:03:15;;;;;;;12.35;9.98;;;3.30;99.60;;;;;;5085518;28;20185;-38
2024/01/18 02:05:42;;;;;;;18.75;11.75;;;3.30;99.50;;;;;;5085419;28;20178;-33
2024/01/18 02:08:09;;;;;;;13.27;10.30;;;3.30;99.50;;;;;;5080896;27;20213;-40
2024/01/18 02:10:37;;;;;;;13.48;9.55;;;3.30;99.50;;;;;;5107765;27;20294;-34
2024/01/18 02:13:04;;;;;;;13.30;9.75;;;3.30;99.50;;;;;;5120169;27;20194;-34
2024/01/18 02:15:35;;;;;;;13.77;10.60;;;3.30;99.50;;;;;;5105941;27;20174;-39
2024/01/18 02:18:01;;;;;;;16.23;11.35;;;3.30;99.50;;;;;;5069328;28;20281;-36
2024/01/18 02:20:32;;;;;;;14.18;9.50;;;3.30;99.50;;;;;;5106340;28;20284;-39
2024/01/18 02:23:01;;;;;;;11.40;8.95;;;3.30;99.50;;;;;;5106028;28;20728;-35
2024/01/18 02:25:28;;;;;;;12.95;10.52;;;3.30;99.80;;;;;;5088610;28;20205;-33
2024/01/18 02:27:57;;;;;;;13.77;10.30;;;3.30;99.50;;;;;;5089682;28;20179;-35
2024/01/18 02:30:24;;;;;;;15.02;10.73;;;3.30;99.50;;;;;;5085568;28;20202;-38
2024/01/18 02:32:54;;;;;;;13.93;9.75;;;3.30;99.50;;;;;;5100138;28;20198;-36
2024/01/18 02:35:22;;;;;;;14.30;10.88;;;3.30;99.50;;;;;;5106521;28;20202;-34
2024/01/18 02:37:49;;;;;;;11.77;9.48;;;3.30;99.50;;;;;;5079035;28;20179;-39
2024/01/18 02:40:20;;;;;;;16.30;10.82;;;3.30;99.50;;;;;;5051876;28;20198;-39
2024/01/18 02:42:46;;;;;;;14.38;10.63;;;3.30;99.50;;;;;;5084676;28;20211;-37
2024/01/18 02:45:14;;;;;;;13.05;10.38;;;3.30;99.50;;;;;;5105190;28;20236;-36
2024/01/18 02:47:43;;;;;;;18.95;11.52;;;3.30;99.50;;;;;;5107172;28;20229;-40
2024/01/18 02:50:11;;;;;;;13.63;9.60;;;3.30;99.60;;;;;;5107543;28;20202;-35
2024/01/18 02:52:44;;;;;;;12.15;10.45;;;3.30;99.50;;;;;;5107555;28;20307;-32
2024/01/18 02:55:12;;;;;;;13.90;9.88;;;3.30;99.40;;;;;;5089545;28;20213;-37
2024/01/18 02:57:43;;;;;;;14.40;10.98;;;3.30;99.50;;;;;;5070361;28;20210;-39
2024/01/18 03:00:12;;;;;;;14.25;10.30;;;3.30;99.50;;;;;;5086085;28;20759;-39
2024/01/18 03:02:41;;;;;;;13.70;10.55;;;3.30;99.50;;;;;;5103062;28;20228;-40
2024/01/18 03:05:12;;;;;;;15.10;9.70;;;3.30;99.50;;;;;;5102935;28;20190;-39
2024/01/18 03:07:38;;;;;;;13.85;10.15;;;3.30;99.50;;;;;;5103949;27;20551;-40
2024/01/18 03:10:09;;;;;;;13.23;10.40;;;3.30;99.50;;;;;;5099894;28;20202;-34
2024/01/18 03:12:39;;;;;;;13.23;10.65;;;3.30;99.50;;;;;;5099722;27;20206;-32
2024/01/18 03:15:08;;;;;;;15.85;10.40;;;3.30;99.50;;;;;;5080702;28;20194;-35
2024/01/18 03:17:34;;;;;;;13.88;10.55;;;3.30;99.50;;;;;;5099490;28;20190;-34
2024/01/18 03:20:07;;;;;;;15.80;11.05;;;3.30;99.50;;;;;;5062834;28;20195;-35
2024/01/18 03:22:39;;;;;;;15.20;11.65;;;3.30;99.50;;;;;;5103911;27;20210;-40
2024/01/18 03:25:06;;;;;;;13.30;10.05;;;3.30;99.50;;;;;;5099741;28;20182;-32
2024/01/18 03:27:32;;;;;;;16.70;11.30;;;3.30;99.50;;;;;;5101790;27;20186;-35
2024/01/18 03:30:00;;;;;;;13.95;10.63;;;3.30;99.50;;;;;;5101595;27;20195;-36
2024/01/18 03:32:28;;;;;;;12.70;9.88;;;3.30;99.50;;;;;;5076005;22;20219;-38
2024/01/18 03:34:54;;;;;;;14.18;10.15;;;3.30;99.50;;;;;;5056608;28;20284;-39
2024/01/18 03:37:23;;;;;;;13.82;10.00;;;3.30;99.40;;;;;;5079022;28;20694;-39
2024/01/18 03:39:53;;;;;;;14.77;11.05;;;3.30;99.50;;;;;;5075843;28;20199;-39
2024/01/18 03:42:22;;;;;;;13.95;11.18;;;3.30;99.50;;;;;;5079010;28;20234;-40
2024/01/18 03:44:48;;;;;;;12.82;10.88;;;3.30;99.50;;;;;;5076343;28;20226;-31
2024/01/18 03:47:14;;;;;;;14.57;10.82;;;3.30;99.40;;;;;;5047868;28;20186;-38
2024/01/18 03:49:42;;;;;;;16.40;10.20;;;3.30;99.40;;;;;;5079861;28;20276;-39
2024/01/18 03:52:12;;;;;;;13.63;10.68;;;3.30;99.50;;;;;;5077289;28;20503;-38
2024/01/18 03:54:39;;;;;;;13.50;10.75;;;3.30;99.40;;;;;;5076345;28;20186;-34
2024/01/18 03:57:05;;;;;;;13.73;11.30;;;3.30;99.40;;;;;;5058211;28;20618;-38
2024/01/18 03:59:31;;;;;;;16.00;11.90;;;3.30;99.50;;;;;;5081814;28;20264;-35
2024/01/18 04:01:57;;;;;;;13.18;10.68;;;3.30;99.50;;;;;;5077967;28;20229;-35
2024/01/18 04:04:30;;;;;;;15.52;11.00;;;3.30;99.50;;;;;;5078911;28;21045;-32
2024/01/18 04:06:59;;;;;;;14.80;11.18;;;3.30;99.50;;;;;;5077377;28;20206;-37
2024/01/18 04:09:27;;;;;;;13.93;11.35;;;3.30;99.50;;;;;;5078064;28;20643;-39
2024/01/18 04:11:54;;;;;;;15.13;11.93;;;3.30;99.50;;;;;;5062123;28;20193;-39
2024/01/18 04:14:20;;;;;;;15.35;11.15;;;3.30;99.50;;;;;;5078359;28;22295;-40
2024/01/18 04:16:46;;;;;;;19.00;12.02;;;3.30;99.50;;;;;;5045303;28;20187;-39
2024/01/18 04:19:14;;;;;;;14.37;11.33;;;3.30;99.50;;;;;;5058557;28;20222;-38
2024/01/18 04:21:43;;;;;;;13.60;10.75;;;3.30;99.40;;;;;;5063240;28;20503;-35
2024/01/18 04:24:12;;;;;;;16.15;11.43;;;3.30;99.50;;;;;;5064387;28;20213;-36
2024/01/18 04:26:40;;;;;;;15.50;11.43;;;3.30;99.50;;;;;;5059826;28;20175;-37
2024/01/18 04:29:06;;;;;;;13.77;11.32;;;3.30;99.50;;;;;;5077800;28;20610;-38
2024/01/18 04:31:33;;;;;;;16.65;12.13;;;3.30;99.50;;;;;;5064219;28;20758;-35
2024/01/18 04:33:59;;;;;;;13.43;11.27;;;3.30;99.50;;;;;;5078467;28;20293;-36
2024/01/18 04:36:25;;;;;;;16.83;11.80;;;3.30;99.50;;;;;;5078617;28;20617;-34
2024/01/18 04:38:51;;;;;;;14.50;11.13;;;3.30;99.50;;;;;;5078506;28;20187;-36
2024/01/18 04:41:17;;;;;;;14.23;11.80;;;3.30;99.50;;;;;;5044255;28;21101;-34
2024/01/18 04:43:44;;;;;;;14.93;11.75;;;3.30;99.50;;;;;;5043346;28;20183;-36
2024/01/18 04:46:10;;;;;;;14.15;10.85;;;3.30;99.50;;;;;;5048240;28;20199;-33
2024/01/18 04:48:42;;;;;;;14.65;11.60;;;3.30;99.50;;;;;;5060856;28;20196;-37
2024/01/18 04:51:10;;;;;;;19.30;12.82;;;3.40;99.50;;;;;;5078394;28;20186;-35
2024/01/18 04:53:39;;;;;;;15.10;11.45;;;3.30;99.50;;;;;;5057960;28;20571;-31
2024/01/18 04:56:12;;;;;;;14.63;11.32;;;3.30;99.50;;;;;;5077820;28;20187;-37
2024/01/18 04:58:38;;;;;;;14.32;11.32;;;3.30;99.50;;;;;;5042810;28;20224;-37
2024/01/18 05:01:04;;;;;;;16.10;11.63;;;3.30;99.50;;;;;;5054808;28;20187;-36
2024/01/18 05:03:31;;;;;;;18.23;11.63;;;3.30;99.50;;;;;;5078144;28;20241;-36
2024/01/18 05:06:04;;;;;;;15.68;11.50;;;3.30;99.50;;;;;;5078356;28;20552;-40
2024/01/18 05:08:30;;;;;;;18.08;11.45;;;3.30;99.50;;;;;;5078351;28;20841;-36
2024/01/18 05:10:56;;;;;;;13.30;10.90;;;3.30;99.50;;;;;;5078656;28;20686;-40
2024/01/18 05:13:22;;;;;;;18.20;12.85;;;3.30;99.80;;;;;;5077504;28;20290;-35
2024/01/18 05:15:59;;;;;;;16.05;12.02;;;3.30;99.50;;;;;;5077989;28;20168;-34
2024/01/18 05:18:25;;;;;;;18.55;12.43;;;3.30;99.50;;;;;;5076979;28;20990;-40
2024/01/18 05:20:51;;;;;;;16.48;12.25;;;3.30;99.50;;;;;;5077566;28;20705;-40
2024/01/18 05:23:17;;;;;;;16.80;12.60;;;3.30;99.50;;;;;;5046722;28;20199;-35
2024/01/18 05:25:45;;;;;;;18.67;12.10;;;3.30;99.50;;;;;;5060046;28;20427;-38
2024/01/18 05:28:11;;;;;;;17.17;12.05;;;3.30;99.50;;;;;;5078029;28;20186;-38
2024/01/18 05:30:37;;;;;;;15.07;12.07;;;3.30;99.50;;;;;;5082681;28;20590;-36
2024/01/18 05:33:04;;;;;;;17.30;11.25;;;3.30;99.50;;;;;;5076705;28;20211;-39
2024/01/18 05:35:32;;;;;;;15.30;12.20;;;3.30;99.50;;;;;;5077885;28;20187;-34
2024/01/18 05:37:59;;;;;;;16.52;12.43;;;3.30;99.50;;;;;;5041987;28;20191;-34
2024/01/18 05:40:25;;;;;;;14.05;10.65;;;3.30;99.50;;;;;;5060407;28;20199;-34
2024/01/18 05:42:51;;;;;;;16.35;12.45;;;3.30;99.50;;;;;;5060854;28;20289;-37
2024/01/18 05:45:20;;;;;;;15.57;12.60;;;3.30;99.80;;;;;;5080913;28;20752;-34
2024/01/18 05:47:46;;;;;;;12.90;11.48;;;3.30;99.40;;;;;;5073497;28;20176;-30
2024/01/18 05:50:17;;;;;;;14.47;11.20;;;3.30;99.40;;;;;;5077265;28;20217;-36
2024/01/18 05:52:43;;;;;;;14.48;11.35;;;3.30;99.50;;;;;;5060775;28;20455;-38
2024/01/18 05:55:09;;;;;;;15.95;11.77;;;3.30;99.50;;;;;;5055250;28;20187;-32
2024/01/18 05:57:37;;;;;;;14.13;11.50;;;3.30;99.50;;;;;;5074409;28;20784;-35
2024/01/18 06:00:05;;;;;;;14.30;11.57;;;3.30;99.40;;;;;;5049275;28;20697;-37
2024/01/18 06:02:32;;;;;;;17.75;11.98;;;3.30;99.40;;;;;;5057850;28;20222;-36
2024/01/18 06:04:58;;;;;;;15.40;12.40;;;3.30;99.40;;;;;;5040434;28;20337;-33
2024/01/18 06:07:24;;;;;;;15.40;11.30;;;3.30;99.40;;;;;;5079094;28;20818;-38
2024/01/18 06:09:52;;;;;;;15.80;12.32;;;3.30;99.40;;;;;;5077800;28;20468;-38
2024/01/18 06:12:20;;;;;;;18.23;12.43;;;3.30;99.40;;;;;;5077906;28;20202;-32
2024/01/18 06:14:45;;;;;;;13.70;12.00;;;3.30;99.40;;;;;;5076107;28;20198;-35
2024/01/18 06:17:16;;;;;;;16.48;11.63;;;3.30;99.40;;;;;;5040588;28;20605;-35
2024/01/18 06:19:44;;;;;;;16.27;11.48;;;3.30;99.40;;;;;;5066766;28;20211;-36
2024/01/18 06:22:13;;;;;;;18.10;12.35;;;3.30;99.40;;;;;;5077836;28;20218;-29
2024/01/18 06:24:41;;;;;;;17.37;12.87;;;3.30;99.80;;;;;;5077203;28;20894;-36
2024/01/18 06:27:09;;;;;;;15.25;12.38;;;3.30;99.40;;;;;;5063492;28;20532;-35
2024/01/18 06:29:38;;;;;;;13.63;11.57;;;3.30;99.40;;;;;;5058451;28;20749;-36
2024/01/18 06:32:06;;;;;;;16.20;12.50;;;3.30;99.50;;;;;;5078424;28;20195;-35
2024/01/18 06:34:32;;;;;;;15.50;12.07;;;3.30;99.40;;;;;;5079404;28;20515;-34
2024/01/18 06:36:58;;;;;;;17.13;12.50;;;3.30;99.40;;;;;;5081632;28;20812;-36
2024/01/18 06:39:24;;;;;;;18.67;12.20;;;3.30;99.40;;;;;;5081332;28;20899;-38
2024/01/18 06:41:50;;;;;;;16.70;12.60;;;3.30;99.40;;;;;;5087279;28;20566;-36
2024/01/18 06:44:18;;;;;;;14.18;11.57;;;3.30;99.40;;;;;;5062860;28;20432;-35
2024/01/18 06:46:44;;;;;;;16.90;12.70;;;3.30;99.40;;;;;;5080882;28;20650;-32
2024/01/18 06:49:11;;;;;;;16.85;12.35;;;3.30;99.40;;;;;;5082680;28;20195;-37
2024/01/18 06:51:39;;;;;;;15.30;11.63;;;3.30;99.40;;;;;;5063849;28;20221;-36
2024/01/18 06:54:05;;;;;;;16.05;11.75;;;3.30;99.40;;;;;;5068316;28;20267;-31
2024/01/18 06:56:31;;;;;;;16.20;11.70;;;3.30;99.40;;;;;;5070930;28;20701;-36
2024/01/18 06:58:57;;;;;;;15.13;11.60;;;3.30;99.30;;;;;;5081402;28;20214;-38
2024/01/18 07:01:29;;;;;;;13.50;11.32;;;3.30;99.30;;;;;;5060698;28;20468;-38
2024/01/18 07:03:59;;;;;;;18.35;12.57;;;3.30;99.30;;;;;;5083434;28;20274;-37
2024/01/18 07:06:31;;;;;;;14.90;11.90;;;3.30;99.30;;;;;;5068942;28;20182;-34
2024/01/18 07:08:57;;;;;;;16.02;12.10;;;3.30;99.30;;;;;;5084425;28;20441;-34
2024/01/18 07:11:23;;;;;;;15.25;11.75;;;3.30;99.30;;;;;;5058488;28;21037;-34
2024/01/18 07:13:49;;;;;;;17.13;12.73;;;3.30;99.30;;;;;;5061512;28;20749;-38
2024/01/18 07:16:16;;;;;;;19.80;13.10;;;3.30;99.30;;;;;;5081648;28;20179;-38
2024/01/18 07:18:44;;;;;;;14.00;11.80;;;3.30;99.20;;;;;;5061952;28;20975;-34
2024/01/18 07:21:13;;;;;;;12.90;11.48;;;3.30;99.20;;;;;;5062102;28;20190;-35
2024/01/18 07:23:39;;;;;;;15.75;11.95;;;3.30;99.20;;;;;;5070391;28;20194;-34
2024/01/18 07:26:05;;;;;;;17.30;12.50;;;3.30;99.20;;;;;;5081245;28;20187;-34
2024/01/18 07:28:31;;;;;;;16.95;12.23;;;3.30;99.20;;;;;;5079811;28;20183;-38
2024/01/18 07:30:57;;;;;;;16.83;12.63;;;3.30;99.20;;;;;;5080898;28;20238;-34
2024/01/18 07:33:23;;;;;;;16.60;12.55;;;3.30;99.20;;;;;;5061633;28;21033;-37
2024/01/18 07:35:51;;;;;;;16.50;13.40;;;3.30;99.20;;;;;;5082469;28;20278;-34
2024/01/18 07:38:17;;;;;;;17.20;11.85;;;3.30;99.20;;;;;;5078754;28;20478;-30
2024/01/18 07:40:43;;;;;;;16.17;12.47;;;3.30;99.10;;;;;;5062039;28;20766;-39
2024/01/18 07:43:11;;;;;;;19.73;13.95;;;3.20;99.10;;;;;;5060831;28;20472;-35
2024/01/18 07:45:37;;;;;;;15.75;13.15;;;3.30;99.10;;;;;;5060509;28;20198;-36
2024/01/18 07:48:03;;;;;;;16.88;13.10;;;3.30;99.10;;;;;;5060095;28;20179;-38
2024/01/18 07:50:29;;;;;;;18.48;13.18;;;3.30;99.10;;;;;;5058297;28;20198;-37
2024/01/18 07:52:55;;;;;;;21.58;14.60;;;3.30;99.00;;;;;;5079511;28;20194;-36
2024/01/18 07:55:25;;;;;;;22.20;13.32;;;3.20;99.00;;;;;;5079433;28;20198;-39
2024/01/18 07:57:51;;;;;;;18.58;12.30;;;3.30;99.00;;;;;;5061351;28;20180;-37
2024/01/18 08:00:18;;;;;;;16.48;13.05;;;3.30;99.00;;;;;;5079557;28;20736;-36
2024/01/18 08:02:44;;;;;;;17.17;12.57;;;3.20;98.90;;;;;;5060056;28;20600;-39
2024/01/18 08:05:13;;;;;;;16.67;13.32;;;3.20;98.90;;;;;;5060574;28;20189;-37
2024/01/18 08:07:39;;;;;;;17.10;12.90;;;3.30;98.90;;;;;;5079452;28;20179;-36
2024/01/18 08:10:08;;;;;;;19.90;13.00;;;3.20;98.90;;;;;;5077958;28;20301;-36
2024/01/18 08:12:34;;;;;;;18.30;14.10;;;3.20;98.90;;;;;;5078019;28;20261;-38
2024/01/18 08:15:08;;;;;;;18.17;13.27;;;3.20;98.90;;;;;;5078542;28;20306;-34
2024/01/18 08:17:34;;;;;;;17.55;12.15;;;3.20;98.90;;;;;;5077556;28;20183;-39
2024/01/18 08:20:12;;;;;;;19.30;12.40;;;3.20;98.80;;;;;;5077663;28;20215;-39
2024/01/18 08:22:44;;;;;;;16.08;12.63;;;3.20;98.80;;;;;;5077734;28;20229;-36
2024/01/18 08:25:10;;;;;;;17.75;13.02;;;3.20;98.80;;;;;;5077219;28;20190;-35
2024/01/18 08:27:41;;;;;;;16.20;12.77;;;3.20;98.80;;;;;;5055782;28;20202;-38
2024/01/18 08:30:10;;;;;;;16.17;12.15;;;3.20;98.80;;;;;;5077532;28;20690;-34
2024/01/18 08:32:36;;;;;;;16.83;13.27;;;3.20;98.80;;;;;;5056498;28;20232;-35
2024/01/18 08:35:06;;;;;;;14.50;11.55;;;3.20;98.80;;;;;;5079332;28;20191;-40
2024/01/18 08:37:33;;;;;;;19.52;13.38;;;3.20;98.70;;;;;;5076541;28;20965;-37
2024/01/18 08:40:02;;;;;;;18.00;12.85;;;3.20;98.70;;;;;;5058465;28;20222;-40
2024/01/18 08:42:33;;;;;;;16.80;13.55;;;3.20;98.70;;;;;;5059638;28;20210;-36
2024/01/18 08:44:59;;;;;;;18.73;12.63;;;3.20;99.10;;;;;;5047369;28;20209;-39
2024/01/18 08:47:30;;;;;;;16.50;12.18;;;3.20;98.70;;;;;;5060358;28;20647;-39
2024/01/18 08:49:59;;;;;;;16.85;11.77;;;3.20;98.70;;;;;;5078432;28;20272;-37
2024/01/18 08:52:27;;;;;;;15.85;12.68;;;3.20;98.80;;;;;;5075336;28;20270;-40
2024/01/18 08:54:53;;;;;;;17.70;13.75;;;3.20;98.70;;;;;;5059220;28;20210;-40
2024/01/18 08:57:20;;;;;;;14.07;12.13;;;3.20;98.70;;;;;;5060017;28;20997;-40
2024/01/18 08:59:46;;;;;;;18.48;13.13;;;3.20;98.70;;;;;;5074446;28;20525;-40
2024/01/18 09:02:12;;;;;;;16.08;10.68;;;3.20;98.80;;;;;;5054072;28;20218;-40
2024/01/18 09:04:38;;;;;;;16.55;12.90;;;3.20;98.80;;;;;;5063538;28;20218;-40
2024/01/18 09:07:07;;;;;;;17.23;13.00;;;3.10;98.70;;;;;;5047230;28;20199;-40
2024/01/18 09:09:33;;;;;;;17.88;14.00;;;3.20;98.80;;;;;;5077054;28;20234;-39
2024/01/18 09:12:01;;;;;;;17.45;12.82;;;3.20;98.80;;;;;;5060849;28;20187;-40
2024/01/18 09:14:27;;;;;;;17.17;12.88;;;3.20;98.80;;;;;;5059153;28;20206;-40
2024/01/18 09:16:55;;;;;;;19.20;14.38;;;3.20;98.70;;;;;;5060269;28;20549;-40
2024/01/18 09:19:22;;;;;;;14.95;13.23;;;3.20;98.80;;;;;;5060413;28;20207;-40
2024/01/18 09:21:50;;;;;;;18.25;14.32;;;3.20;98.80;;;;;;5059551;28;20214;-40
2024/01/18 09:24:16;;;;;;;19.63;13.10;;;3.20;98.80;;;;;;5077401;28;20674;-40
2024/01/18 09:26:42;;;;;;;17.63;12.48;;;3.20;98.80;;;;;;5077753;28;20428;-40
2024/01/18 09:29:11;;;;;;;17.63;13.03;;;3.20;98.80;;;;;;5066510;28;20579;-40
2024/01/18 09:31:37;;;;;;;15.07;12.40;;;3.20;98.80;;;;;;5077222;28;20880;-37
2024/01/18 09:34:03;;;;;;;19.00;13.10;;;3.20;98.80;;;;;;5076879;28;20206;-37
2024/01/18 09:36:29;;;;;;;14.52;12.02;;;3.20;98.70;;;;;;5019404;28;20494;-34
2024/01/18 09:38:55;;;;;;;17.77;12.98;;;3.20;98.80;;;;;;5075249;28;20211;-39
2024/01/18 09:41:21;;;;;;;16.27;13.50;;;3.20;98.80;;;;;;5073874;28;20214;-40
2024/01/18 09:43:54;;;;;;;17.83;13.40;;;3.20;98.80;;;;;;5051480;28;20438;-37
2024/01/18 09:46:23;;;;;;;18.60;13.35;;;3.20;98.80;;;;;;5074982;28;20199;-37
2024/01/18 09:48:49;;;;;;;16.00;12.10;;;3.20;98.80;;;;;;5074874;28;20240;-31
2024/01/18 09:51:21;;;;;;;16.70;13.20;;;3.20;98.80;;;;;;5055652;28;20254;-31
2024/01/18 09:53:54;;;;;;;16.75;13.73;;;3.20;98.80;;;;;;5073718;28;20286;-32
2024/01/18 09:56:31;;;;;;;28.70;15.25;;;3.20;98.80;;;;;;5076489;28;20753;-36
2024/01/18 09:58:59;;;;;;;25.75;17.38;;;3.20;98.80;;;;;;5077457;28;20420;-31
2024/01/18 10:01:25;;;;;;;21.55;16.95;;;3.20;98.80;;;;;;5060922;28;20724;-36
2024/01/18 10:03:51;;;;;;;21.67;16.95;;;3.20;98.80;;;;;;5076625;28;20187;-32
2024/01/18 10:06:20;;;;;;;26.13;18.50;;;3.20;98.80;;;;;;5059154;28;20209;-34
2024/01/18 10:08:47;;;;;;;24.65;17.55;;;3.20;99.00;;;;;;5081580;28;20178;-34
2024/01/18 10:11:16;;;;;;;23.77;17.40;;;3.10;99.10;;;;;;5061830;28;20627;-35
2024/01/18 10:13:54;;;;;;;25.70;16.92;;;3.20;99.20;;;;;;5049038;28;20190;-36
2024/01/18 10:16:32;;;;;;;23.48;15.95;;;3.20;99.30;;;;;;5081408;28;20187;-34
2024/01/18 10:19:14;;;;;;;26.40;15.55;;;3.20;99.30;;;;;;5080371;28;20631;-40
2024/01/18 10:21:41;;;;;;;23.77;16.05;;;3.20;99.30;;;;;;5057633;28;20217;-39
2024/01/18 10:24:12;;;;;;;22.20;15.82;;;3.20;99.40;;;;;;5045058;28;20211;-37
2024/01/18 10:26:41;;;;;;;21.30;16.48;;;3.20;99.40;;;;;;5079207;28;20293;-38
2024/01/18 10:29:10;;;;;;;19.15;14.90;;;3.20;99.40;;;;;;5061469;28;20245;-39
2024/01/18 10:31:41;;;;;;;22.52;16.17;;;3.20;99.40;;;;;;5061014;28;20203;-36
2024/01/18 10:34:07;;;;;;;19.50;15.63;;;3.20;99.40;;;;;;5079260;28;20927;-37
2024/01/18 10:36:37;;;;;;;23.50;15.52;;;3.20;99.40;;;;;;5078310;28;20278;-37
2024/01/18 10:39:17;;;;;;;22.10;16.15;;;3.20;99.40;;;;;;5085015;28;20199;-40
2024/01/18 10:41:45;;;;;;;20.98;15.43;;;3.20;99.50;;;;;;5077687;28;20214;-36
2024/01/18 10:44:15;;;;;;;21.52;14.40;;;3.20;99.50;;;;;;5079837;28;20187;-39
2024/01/18 10:46:42;;;;;;;21.40;14.52;;;3.20;99.50;;;;;;5079692;28;20731;-40
2024/01/18 10:49:12;;;;;;;21.48;15.93;;;3.20;99.50;;;;;;5079798;28;20676;-39
2024/01/18 10:51:42;;;;;;;22.20;15.18;;;3.20;99.60;;;;;;5043256;28;20219;-36
2024/01/18 10:54:09;;;;;;;24.42;15.60;;;3.20;99.50;;;;;;5059661;28;20195;-36
2024/01/18 10:56:38;;;;;;;21.23;15.82;;;3.20;99.50;;;;;;5079529;28;20223;-34
2024/01/18 10:59:06;;;;;;;18.88;13.80;;;3.20;99.40;;;;;;5079761;28;20206;-38
2024/01/18 11:01:33;;;;;;;19.30;14.73;;;3.20;99.80;;;;;;5059104;28;20284;-33
2024/01/18 11:04:00;;;;;;;21.00;15.07;;;3.20;99.50;;;;;;5076784;28;20454;-40
2024/01/18 11:06:30;;;;;;;19.95;14.15;;;3.20;99.60;;;;;;5079423;28;20829;-39
2024/01/18 11:08:59;;;;;;;17.15;13.55;;;3.20;99.60;;;;;;5079135;28;20309;-36
2024/01/18 11:11:29;;;;;;;19.65;13.90;;;3.20;99.60;;;;;;5079022;28;20543;-36
2024/01/18 11:13:57;;;;;;;19.70;13.40;;;3.20;99.90;;;;;;5079192;28;20948;-39
2024/01/18 11:16:27;;;;;;;15.15;12.25;;;3.20;99.60;;;;;;5044266;28;20183;-35
2024/01/18 11:19:00;;;;;;;17.05;13.50;;;3.20;99.60;;;;;;5074560;28;20627;-36
2024/01/18 11:21:42;;;;;;;17.20;13.40;;;3.20;99.70;;;;;;5078145;28;20234;-37
2024/01/18 11:24:10;;;;;;;21.17;12.77;;;3.20;99.70;;;;;;5059625;28;20187;-37
2024/01/18 11:26:37;;;;;;;15.82;11.27;;;3.20;99.80;;;;;;5074943;28;20186;-38
2024/01/18 11:29:24;;;;;;;16.25;12.75;;;3.20;99.90;;;;;;5075604;28;20281;-34
2024/01/18 11:31:50;;;;;;;17.73;11.85;;;3.20;99.90;;;;;;5060741;28;20207;-36
2024/01/18 11:34:37;;;;;;;18.83;12.50;;;3.20;99.90;;;;;;5078591;28;20501;-36
2024/01/18 11:37:12;;;;;;;15.45;12.27;;;3.30;99.90;;;;;;5058871;28;20214;-40
2024/01/18 11:39:49;;;;;;;17.80;12.50;;;3.20;99.90;;;;;;5077792;28;20203;-40
2024/01/18 11:42:18;;;;;;;16.80;11.75;;;3.30;99.90;;;;;;5059261;28;20246;-37
2024/01/18 11:45:12;;;;;;;15.70;11.65;;;3.30;99.90;;;;;;5079015;28;20693;-38
2024/01/18 11:47:41;;;;;;;17.30;12.23;;;3.30;99.90;;;;;;5059998;28;20190;-37
2024/01/18 11:50:10;;;;;;;13.18;10.77;;;3.30;99.90;;;;;;5060151;28;20238;-40
2024/01/18 11:52:39;;;;;;;15.77;11.50;;;3.30;99.90;;;;;;5058937;28;20187;-37
2024/01/18 11:55:06;;;;;;;18.55;11.85;;;3.30;99.90;;;;;;5076194;28;20229;-34
2024/01/18 11:57:32;;;;;;;13.85;10.40;;;3.30;99.80;;;;;;5079072;28;20222;-38
2024/01/18 11:59:59;;;;;;;16.55;11.63;;;3.30;99.90;;;;;;5079180;28;20226;-40
2024/01/18 12:02:28;;;;;;;21.90;12.35;;;3.30;99.90;;;;;;5057983;28;20311;-39
2024/01/18 12:04:57;;;;;;;16.25;10.88;;;3.30;99.90;;;;;;5059716;28;20320;-37
2024/01/18 12:07:25;;;;;;;15.43;10.75;;;3.30;99.90;;;;;;5058148;28;20183;-37
2024/01/18 12:09:54;;;;;;;16.35;11.65;;;3.30;99.90;;;;;;5078825;28;20203;-38
2024/01/18 12:12:20;;;;;;;15.85;11.07;;;3.30;99.80;;;;;;5078368;28;20187;-34
2024/01/18 12:14:50;;;;;;;15.90;9.63;;;3.30;99.90;;;;;;5076846;28;20286;-31
2024/01/18 12:17:16;;;;;;;14.70;10.60;;;3.40;99.90;;;;;;5078053;28;20186;-34
2024/01/18 12:19:46;;;;;;;15.85;11.65;;;3.40;99.90;;;;;;5043879;28;20210;-32
2024/01/18 12:22:19;;;;;;;12.90;8.98;;;3.40;99.90;;;;;;5058540;28;20276;-37
2024/01/18 12:24:49;;;;;;;12.57;9.65;;;3.40;99.90;;;;;;5074174;28;20191;-38
2024/01/18 12:27:18;;;;;;;14.07;10.75;;;3.40;99.90;;;;;;5058665;28;20702;-36
2024/01/18 12:29:44;;;;;;;14.38;10.13;;;3.40;99.90;;;;;;5052935;28;20210;-36
2024/01/18 12:32:15;;;;;;;11.93;9.48;;;3.40;99.90;;;;;;5076370;28;20199;-34
2024/01/18 12:34:41;;;;;;;12.48;8.93;;;3.40;99.90;;;;;;5059375;28;20733;-32
2024/01/18 12:37:07;;;;;;;12.83;9.63;;;3.40;99.90;;;;;;5058781;28;20191;-37
2024/01/18 12:39:35;;;;;;;11.57;9.18;;;3.40;99.90;;;;;;5062084;28;20452;-36
2024/01/18 12:42:02;;;;;;;12.82;9.73;;;3.40;99.90;;;;;;5080343;28;20223;-36
2024/01/18 12:44:29;;;;;;;14.15;8.60;;;3.40;99.80;;;;;;5079214;28;20569;-34